Aviation Digital Data Service (ADDS)

Output produced by METARs form (0521 UTC 25 May 2018)
found at http://www.aviationweather.gov/adds/metars/
 
DGAA 250500Z 27007KT 9999 SCT009 BKN014 26/25 Q1010 NOSIG
TAF DGAA 250500Z 2506/2612 27010KT CAVOK 
     PROB40 
     TEMPO 2514/2518 09015G25 5000 TSRA BKN009 SCT020CB 
     BECMG 2520/2522 20005KT CAVOK